createdAt,value
2017-10-22T00:02:17.458Z,37.38
2017-10-22T00:04:45.108Z,37.80
2017-10-22T00:07:12.843Z,33.67
2017-10-22T00:09:40.478Z,30.58
2017-10-22T00:12:08.115Z,21.02
2017-10-22T00:14:35.878Z,20.12
2017-10-22T00:17:03.522Z,20.40
2017-10-22T00:19:31.190Z,22.85
2017-10-22T00:21:58.814Z,27.05
2017-10-22T00:24:26.439Z,17.95
2017-10-22T00:26:54.862Z,24.00
2017-10-22T00:29:22.491Z,26.52
2017-10-22T00:31:50.157Z,17.55
2017-10-22T00:34:17.794Z,25.12
2017-10-22T00:36:45.429Z,20.40
2017-10-22T00:39:13.091Z,20.83
2017-10-22T00:41:40.714Z,25.00
2017-10-22T00:44:08.386Z,21.58
2017-10-22T00:46:36.159Z,18.37
2017-10-22T00:49:03.793Z,35.90
2017-10-22T00:51:31.462Z,29.63
2017-10-22T00:53:59.857Z,22.58
2017-10-22T00:56:27.521Z,18.05
2017-10-22T00:58:55.255Z,14.57
2017-10-22T01:01:22.883Z,27.30
2017-10-22T01:03:52.452Z,25.80
2017-10-22T01:06:21.201Z,27.02
2017-10-22T01:08:49.960Z,31.08
2017-10-22T01:11:18.468Z,29.90
2017-10-22T01:13:48.130Z,17.87
2017-10-22T01:16:17.110Z,26.27
2017-10-22T01:18:45.935Z,17.00
2017-10-22T01:21:14.459Z,16.58
2017-10-22T01:23:42.105Z,15.27
2017-10-22T01:26:09.768Z,24.10
2017-10-22T01:28:37.423Z,33.47
2017-10-22T01:31:05.914Z,22.87
2017-10-22T01:33:33.587Z,18.77
2017-10-22T01:36:01.232Z,17.95
2017-10-22T01:38:28.863Z,16.70
2017-10-22T01:40:56.522Z,16.70
2017-10-22T01:43:24.162Z,16.90
2017-10-22T01:45:51.826Z,12.80
2017-10-22T01:48:19.455Z,18.50
2017-10-22T01:50:47.220Z,14.82
2017-10-22T01:53:14.891Z,17.52
2017-10-22T01:55:42.523Z,13.48
2017-10-22T01:58:10.212Z,12.25
2017-10-22T02:00:38.613Z,15.05
2017-10-22T02:03:06.274Z,13.95
2017-10-22T02:05:33.930Z,11.15
2017-10-22T02:08:01.546Z,12.43
2017-10-22T02:10:29.215Z,17.90
2017-10-22T02:12:56.883Z,17.80
2017-10-22T02:15:24.524Z,11.85
2017-10-22T02:17:52.187Z,20.80
2017-10-22T02:20:19.827Z,16.55
2017-10-22T02:22:47.495Z,12.27
2017-10-22T02:25:16.065Z,18.23
2017-10-22T02:27:43.698Z,15.02
2017-10-22T02:30:12.127Z,13.48
2017-10-22T02:32:39.759Z,18.60
2017-10-22T02:35:07.403Z,15.30
2017-10-22T02:37:35.035Z,12.20
2017-10-22T02:40:02.696Z,12.43
2017-10-22T02:42:30.316Z,10.70
2017-10-22T02:44:57.953Z,13.20
2017-10-22T02:47:26.373Z,12.75
2017-10-22T02:49:54.015Z,10.68
2017-10-22T02:52:21.655Z,11.00
2017-10-22T02:54:49.309Z,11.50
2017-10-22T02:57:16.935Z,8.88
2017-10-22T02:59:44.586Z,8.50
2017-10-22T03:02:12.206Z,9.82
2017-10-22T03:04:40.599Z,9.35
2017-10-22T03:07:08.250Z,8.07
2017-10-22T03:09:35.903Z,7.32
2017-10-22T03:12:03.570Z,8.02
2017-10-22T03:14:31.231Z,7.62
2017-10-22T03:16:59.634Z,9.38
2017-10-22T03:19:27.278Z,11.73
2017-10-22T03:21:55.846Z,8.80
2017-10-22T03:24:23.531Z,10.00
2017-10-22T03:26:51.146Z,8.23
2017-10-22T03:29:18.780Z,8.88
2017-10-22T03:31:46.429Z,12.15
2017-10-22T03:34:14.060Z,7.90
2017-10-22T03:36:41.718Z,8.00
2017-10-22T03:39:10.103Z,8.68
2017-10-22T03:41:37.804Z,7.55
2017-10-22T03:44:05.459Z,6.55
2017-10-22T03:46:33.084Z,7.12
2017-10-22T03:49:00.745Z,7.40
2017-10-22T03:51:28.364Z,7.18
2017-10-22T03:53:56.200Z,6.53
2017-10-22T03:56:23.838Z,8.48
2017-10-22T03:58:51.470Z,8.30
2017-10-22T04:01:19.123Z,6.60
2017-10-22T04:03:46.820Z,7.03
2017-10-22T04:06:14.434Z,7.37
2017-10-22T04:08:42.071Z,7.60
2017-10-22T04:11:09.743Z,6.32
2017-10-22T04:13:37.519Z,3.62
2017-10-22T04:16:05.161Z,4.90
2017-10-22T04:18:32.807Z,6.15
2017-10-22T04:21:00.456Z,6.82
2017-10-22T04:23:28.076Z,5.53
2017-10-22T04:25:55.854Z,5.53
2017-10-22T04:28:23.490Z,5.72
2017-10-22T04:30:51.120Z,2.95
2017-10-22T04:33:21.886Z,5.40
2017-10-22T04:35:49.539Z,3.85
2017-10-22T04:38:17.553Z,5.12
2017-10-22T04:40:45.256Z,5.35
2017-10-22T04:43:13.712Z,4.32
2017-10-22T04:45:41.373Z,4.03
2017-10-22T04:48:09.080Z,3.62
2017-10-22T04:50:36.925Z,5.05
2017-10-22T04:53:04.546Z,5.65
2017-10-22T04:55:32.211Z,4.40
2017-10-22T04:57:59.871Z,3.90
2017-10-22T05:00:27.527Z,4.40
2017-10-22T05:02:56.178Z,3.08
2017-10-22T05:05:23.803Z,4.12
2017-10-22T05:07:51.608Z,3.55
2017-10-22T05:10:19.296Z,3.92
2017-10-22T05:12:47.230Z,3.47
2017-10-22T05:15:14.917Z,3.42
2017-10-22T05:17:42.550Z,4.43
2017-10-22T05:20:10.176Z,4.18
2017-10-22T05:22:38.071Z,5.45
2017-10-22T05:25:05.872Z,2.65
2017-10-22T05:27:33.533Z,3.37
2017-10-22T05:30:01.189Z,6.07
2017-10-22T05:32:28.822Z,4.18
2017-10-22T05:34:56.474Z,5.50
2017-10-22T05:37:24.182Z,6.12
2017-10-22T05:39:51.842Z,6.93
2017-10-22T05:42:19.646Z,5.82
2017-10-22T05:44:48.060Z,5.20
2017-10-22T05:47:15.838Z,5.25
2017-10-22T05:49:43.776Z,6.43
2017-10-22T05:52:11.440Z,6.12
2017-10-22T05:54:39.225Z,4.72
2017-10-22T05:57:07.667Z,5.62
2017-10-22T05:59:35.374Z,6.82
2017-10-22T06:02:02.990Z,7.15
2017-10-22T06:04:31.404Z,5.85
2017-10-22T06:06:59.030Z,3.47
2017-10-22T06:09:26.905Z,4.82
2017-10-22T06:11:54.966Z,7.93
2017-10-22T06:14:22.600Z,5.45
2017-10-22T06:16:50.283Z,6.80
2017-10-22T06:19:17.976Z,8.55
2017-10-22T06:21:45.866Z,11.93
2017-10-22T06:24:14.323Z,7.97
2017-10-22T06:26:41.951Z,6.37
2017-10-22T06:29:09.636Z,6.55
2017-10-22T06:31:37.669Z,4.82
2017-10-22T06:34:05.386Z,6.00
2017-10-22T06:36:33.062Z,6.95
2017-10-22T06:39:00.723Z,9.68
2017-10-22T06:41:29.187Z,7.45
2017-10-22T06:43:56.886Z,5.70
2017-10-22T06:46:25.439Z,4.72
2017-10-22T06:48:53.858Z,4.28
2017-10-22T06:51:21.496Z,6.30
2017-10-22T06:53:50.682Z,5.57
2017-10-22T06:56:18.313Z,4.53
2017-10-22T06:58:46.180Z,24.85
2017-10-22T07:01:15.184Z,11.55
2017-10-22T07:03:42.955Z,9.25
2017-10-22T07:06:12.566Z,8.57
2017-10-22T07:08:42.382Z,10.27
2017-10-22T07:11:10.063Z,5.95
2017-10-22T07:13:37.706Z,7.20
2017-10-22T07:16:05.459Z,7.90
2017-10-22T07:18:33.164Z,4.95
2017-10-22T07:21:00.788Z,8.23
2017-10-22T07:23:29.190Z,8.05
2017-10-22T07:25:56.905Z,4.43
2017-10-22T07:28:28.037Z,6.37
2017-10-22T07:31:06.449Z,5.00
2017-10-22T07:33:36.822Z,5.53
2017-10-22T07:36:05.114Z,7.95
2017-10-22T07:38:34.295Z,9.85
2017-10-22T07:41:02.486Z,8.23
2017-10-22T07:43:33.153Z,8.63
2017-10-22T07:46:03.543Z,9.27
2017-10-22T07:48:32.638Z,8.55
2017-10-22T07:51:00.743Z,7.55
2017-10-22T07:53:28.792Z,9.27
2017-10-22T07:55:56.948Z,9.77
2017-10-22T07:58:25.067Z,5.78
2017-10-22T08:00:53.532Z,7.20
2017-10-22T08:03:21.569Z,5.45
2017-10-22T08:05:49.672Z,5.47
2017-10-22T08:08:17.445Z,9.10
2017-10-22T08:10:45.079Z,8.65
2017-10-22T08:13:13.270Z,9.65
2017-10-22T08:15:42.283Z,7.50
2017-10-22T08:18:09.973Z,7.40
2017-10-22T08:20:37.627Z,6.53
2017-10-22T08:23:05.382Z,5.93
2017-10-22T08:25:33.047Z,5.82
2017-10-22T08:28:00.675Z,7.62
2017-10-22T08:30:28.770Z,8.02
2017-10-22T08:32:56.429Z,10.75
2017-10-22T08:35:24.060Z,5.62
2017-10-22T08:37:52.044Z,12.23
2017-10-22T08:40:19.711Z,19.05
2017-10-22T08:42:47.685Z,11.65
2017-10-22T08:45:15.377Z,13.43
2017-10-22T08:47:43.775Z,12.20
2017-10-22T08:50:12.106Z,12.02
2017-10-22T08:52:39.744Z,14.55
2017-10-22T08:55:07.446Z,14.93
2017-10-22T08:57:35.137Z,13.62
2017-10-22T09:00:02.931Z,17.12
2017-10-22T09:02:30.613Z,14.80
2017-10-22T09:04:58.257Z,12.65
2017-10-22T09:07:25.936Z,6.55
2017-10-22T09:09:53.608Z,6.37
2017-10-22T09:12:21.231Z,9.82
2017-10-22T09:14:49.667Z,8.02
2017-10-22T09:17:17.409Z,6.32
2017-10-22T09:19:45.051Z,5.55
2017-10-22T09:22:12.697Z,2.83
2017-10-22T09:24:40.310Z,5.43
2017-10-22T09:27:08.695Z,5.37
2017-10-22T09:29:37.307Z,3.12
2017-10-22T09:32:04.921Z,3.45
2017-10-22T09:34:32.562Z,5.60
2017-10-22T09:37:00.188Z,5.22
2017-10-22T09:39:27.854Z,4.62
2017-10-22T09:41:56.202Z,6.70
2017-10-22T09:44:23.830Z,4.10
2017-10-22T09:46:51.487Z,5.25
2017-10-22T09:49:19.170Z,4.50
2017-10-22T09:51:46.932Z,7.53
2017-10-22T09:54:14.524Z,11.40
2017-10-22T09:56:49.452Z,6.67
2017-10-22T09:59:17.170Z,6.10
2017-10-22T10:01:46.444Z,5.07
2017-10-22T10:04:14.078Z,6.80
2017-10-22T10:06:41.676Z,4.77
2017-10-22T10:09:09.306Z,5.53
2017-10-22T10:11:37.195Z,11.50
2017-10-22T10:14:05.149Z,4.27
2017-10-22T10:16:32.893Z,7.60
2017-10-22T10:19:00.494Z,6.17
2017-10-22T10:21:28.152Z,3.57
2017-10-22T10:23:55.788Z,6.05
2017-10-22T10:26:23.411Z,6.15
2017-10-22T10:28:51.067Z,3.17
2017-10-22T10:31:18.714Z,4.00
2017-10-22T10:33:46.426Z,5.20
2017-10-22T10:36:14.064Z,4.22
2017-10-22T10:38:41.711Z,4.25
2017-10-22T10:41:09.374Z,4.87
2017-10-22T10:43:37.097Z,3.90
2017-10-22T10:46:05.621Z,6.37
2017-10-22T10:48:33.260Z,3.22
2017-10-22T10:51:04.669Z,5.45
2017-10-22T10:53:32.350Z,4.85
2017-10-22T10:55:59.970Z,5.72
2017-10-22T10:58:27.653Z,4.45
2017-10-22T11:00:55.305Z,2.42
2017-10-22T11:03:23.744Z,2.45
2017-10-22T11:05:52.370Z,4.43
2017-10-22T11:08:20.771Z,4.97
2017-10-22T11:10:48.432Z,4.65
2017-10-22T11:13:16.568Z,5.15
2017-10-22T11:15:45.861Z,3.45
2017-10-22T11:18:13.499Z,5.40
2017-10-22T11:20:41.115Z,3.92
2017-10-22T11:23:08.771Z,7.15
2017-10-22T11:25:36.403Z,2.10
2017-10-22T11:28:04.798Z,3.20
2017-10-22T11:30:40.332Z,5.12
2017-10-22T11:33:09.161Z,3.35
2017-10-22T11:35:37.332Z,4.12
2017-10-22T11:38:05.213Z,4.50
2017-10-22T11:40:33.946Z,4.47
2017-10-22T11:43:02.418Z,6.85
2017-10-22T11:45:30.834Z,2.45
2017-10-22T11:47:58.639Z,6.15
2017-10-22T11:50:26.352Z,2.37
2017-10-22T11:52:53.982Z,5.85
2017-10-22T11:55:21.666Z,6.28
2017-10-22T11:57:49.282Z,3.00
2017-10-22T12:00:17.023Z,4.60
2017-10-22T12:02:44.715Z,5.35
2017-10-22T12:05:13.190Z,4.00
2017-10-22T12:07:41.619Z,6.45
2017-10-22T12:10:09.283Z,5.32
2017-10-22T12:12:36.998Z,4.82
2017-10-22T12:15:04.683Z,2.75
2017-10-22T12:17:32.518Z,4.00
2017-10-22T12:20:00.667Z,5.15
2017-10-22T12:22:28.365Z,4.32
2017-10-22T12:24:56.274Z,6.65
2017-10-22T12:27:23.893Z,5.72
2017-10-22T12:29:51.512Z,6.12
2017-10-22T12:32:19.156Z,4.37
2017-10-22T12:34:46.810Z,5.43
2017-10-22T12:37:14.472Z,5.90
2017-10-22T12:39:42.098Z,3.22
2017-10-22T12:42:09.721Z,5.80
2017-10-22T12:44:38.194Z,4.07
2017-10-22T12:47:06.618Z,11.50
2017-10-22T12:49:34.282Z,4.97
2017-10-22T12:52:02.878Z,5.85
2017-10-22T12:54:31.315Z,2.47
2017-10-22T12:56:59.004Z,2.80
2017-10-22T12:59:26.629Z,2.62
2017-10-22T13:01:54.289Z,5.85
2017-10-22T13:04:21.927Z,4.78
2017-10-22T13:06:49.550Z,5.30
2017-10-22T13:09:17.190Z,3.22
2017-10-22T13:11:44.840Z,3.83
2017-10-22T13:14:12.547Z,1.60
2017-10-22T13:16:41.249Z,2.70
2017-10-22T13:19:08.870Z,3.10
2017-10-22T13:21:36.582Z,5.18
2017-10-22T13:24:04.363Z,5.60
2017-10-22T13:26:32.767Z,4.77
2017-10-22T13:29:00.393Z,7.33
2017-10-22T13:31:28.026Z,4.53
2017-10-22T13:33:55.728Z,6.15
2017-10-22T13:36:24.110Z,4.40
2017-10-22T13:38:51.768Z,2.75
2017-10-22T13:41:20.259Z,5.07
2017-10-22T13:43:47.911Z,6.30
2017-10-22T13:46:15.582Z,5.85
2017-10-22T13:48:43.340Z,3.22
2017-10-22T13:51:11.005Z,3.67
2017-10-22T13:53:39.394Z,5.18
2017-10-22T13:56:07.051Z,2.95
2017-10-22T13:58:34.699Z,5.35
2017-10-22T14:01:02.323Z,5.70
2017-10-22T14:03:29.992Z,3.50
2017-10-22T14:05:57.615Z,3.35
2017-10-22T14:08:26.085Z,3.92
2017-10-22T14:10:53.761Z,4.68
2017-10-22T14:13:21.386Z,3.50
2017-10-22T14:15:49.179Z,6.22
2017-10-22T14:18:16.820Z,2.62
2017-10-22T14:20:44.539Z,7.53
2017-10-22T14:23:12.182Z,3.72
2017-10-22T14:25:39.834Z,9.30
2017-10-22T14:28:07.500Z,2.03
2017-10-22T14:30:35.167Z,9.13
2017-10-22T14:33:04.030Z,7.75
2017-10-22T14:35:32.523Z,7.35
2017-10-22T14:38:00.175Z,3.42
2017-10-22T14:40:28.621Z,3.50
2017-10-22T14:42:56.263Z,2.30
2017-10-22T14:45:23.887Z,5.30
2017-10-22T14:47:51.615Z,4.85
2017-10-22T14:50:19.250Z,3.95
2017-10-22T14:52:46.944Z,4.53
2017-10-22T14:55:14.621Z,5.72
2017-10-22T14:57:43.206Z,5.78
2017-10-22T15:00:10.874Z,5.15
2017-10-22T15:02:38.584Z,5.25
2017-10-22T15:05:07.014Z,8.50
2017-10-22T15:07:34.651Z,5.95
2017-10-22T15:10:02.270Z,4.97
2017-10-22T15:12:29.930Z,5.30
2017-10-22T15:14:57.749Z,3.55
2017-10-22T15:17:26.243Z,3.05
2017-10-22T15:19:53.926Z,7.80
2017-10-22T15:22:21.575Z,5.00
2017-10-22T15:24:49.228Z,4.10
2017-10-22T15:27:16.893Z,6.55
2017-10-22T15:29:45.390Z,5.60
2017-10-22T15:32:13.018Z,4.62
2017-10-22T15:34:41.414Z,4.82
2017-10-22T15:37:09.458Z,2.85
2017-10-22T15:39:37.291Z,3.50
2017-10-22T15:42:05.718Z,4.40
2017-10-22T15:44:33.383Z,4.78
2017-10-22T15:47:01.070Z,2.70
2017-10-22T15:49:28.707Z,7.37
2017-10-22T15:51:56.364Z,2.22
2017-10-22T15:54:24.028Z,6.95
2017-10-22T15:56:51.658Z,2.33
2017-10-22T15:59:19.297Z,4.68
2017-10-22T16:01:47.257Z,5.03
2017-10-22T16:04:14.908Z,5.07
2017-10-22T16:06:42.573Z,6.70
2017-10-22T16:09:10.221Z,5.30
2017-10-22T16:11:37.880Z,9.57
2017-10-22T16:14:05.568Z,7.78
2017-10-22T16:16:33.975Z,7.40
2017-10-22T16:19:01.649Z,6.25
2017-10-22T16:21:29.282Z,7.97
2017-10-22T16:23:56.908Z,5.15
2017-10-22T16:26:24.639Z,3.92
2017-10-22T16:28:52.277Z,3.92
2017-10-22T16:31:19.976Z,3.67
2017-10-22T16:33:47.600Z,4.32
2017-10-22T16:36:15.400Z,2.35
2017-10-22T16:38:43.043Z,6.05
2017-10-22T16:41:10.666Z,6.45
2017-10-22T16:43:38.325Z,4.15
2017-10-22T16:46:06.066Z,5.85
2017-10-22T16:48:33.700Z,5.60
2017-10-22T16:51:01.343Z,9.23
2017-10-22T16:53:28.963Z,7.30
2017-10-22T16:55:56.652Z,5.50
2017-10-22T16:58:24.279Z,4.05
2017-10-22T17:00:51.898Z,8.40
2017-10-22T17:03:19.558Z,5.00
2017-10-22T17:05:47.222Z,4.30
2017-10-22T17:08:14.868Z,3.92
2017-10-22T17:10:42.524Z,5.95
2017-10-22T17:13:10.184Z,7.05
2017-10-22T17:15:37.850Z,9.38
2017-10-22T17:18:06.069Z,3.20
2017-10-22T17:20:33.742Z,5.65
2017-10-22T17:23:01.366Z,6.65
2017-10-22T17:25:28.999Z,5.32
2017-10-22T17:27:56.691Z,4.60
2017-10-22T17:30:24.318Z,5.55
2017-10-22T17:32:51.983Z,8.00
2017-10-22T17:35:19.602Z,7.20
2017-10-22T17:37:47.254Z,4.85
2017-10-22T17:40:14.923Z,6.25
2017-10-22T17:42:42.550Z,6.25
2017-10-22T17:45:10.216Z,5.20
2017-10-22T17:47:37.876Z,6.43
2017-10-22T17:50:05.539Z,6.68
2017-10-22T17:52:33.952Z,3.87
2017-10-22T17:55:01.581Z,5.82
2017-10-22T17:57:29.234Z,7.70
2017-10-22T17:59:56.872Z,9.88
2017-10-22T18:02:24.486Z,4.07
2017-10-22T18:04:52.906Z,5.22
2017-10-22T18:07:20.522Z,6.18
2017-10-22T18:09:48.187Z,5.03
2017-10-22T18:12:15.916Z,4.78
2017-10-22T18:14:43.530Z,4.72
2017-10-22T18:17:11.943Z,4.62
2017-10-22T18:19:39.580Z,7.57
2017-10-22T18:22:07.319Z,4.07
2017-10-22T18:24:34.948Z,8.73
2017-10-22T18:27:02.579Z,4.80
2017-10-22T18:29:30.315Z,6.87
2017-10-22T18:31:57.943Z,5.15
2017-10-22T18:34:25.807Z,9.93
2017-10-22T18:36:53.429Z,8.52
2017-10-22T18:39:21.069Z,8.35
2017-10-22T18:41:48.785Z,9.65
2017-10-22T18:44:16.415Z,7.40
2017-10-22T18:46:44.071Z,6.18
2017-10-22T18:49:11.737Z,5.45
2017-10-22T18:51:39.620Z,6.35
2017-10-22T18:54:08.086Z,4.37
2017-10-22T18:56:35.813Z,7.00
2017-10-22T18:59:03.606Z,6.82
2017-10-22T19:01:31.546Z,7.15
2017-10-22T19:03:59.214Z,7.43
2017-10-22T19:06:27.968Z,12.75
2017-10-22T19:08:55.773Z,7.25
2017-10-22T19:11:23.729Z,5.32
2017-10-22T19:13:51.452Z,6.53
2017-10-22T19:16:20.042Z,4.20
2017-10-22T19:18:47.786Z,7.62
2017-10-22T19:21:15.958Z,10.48
2017-10-22T19:23:44.042Z,7.07
2017-10-22T19:26:11.949Z,9.55
2017-10-22T19:28:39.630Z,11.10
2017-10-22T19:31:07.579Z,7.72
2017-10-22T19:33:36.171Z,5.82
2017-10-22T19:36:03.843Z,6.53
2017-10-22T19:38:32.234Z,7.03
2017-10-22T19:40:59.869Z,7.30
2017-10-22T19:43:27.627Z,7.30
2017-10-22T19:45:55.272Z,9.82
2017-10-22T19:48:23.371Z,12.50
2017-10-22T19:50:51.081Z,15.35
2017-10-22T19:53:18.715Z,11.23
2017-10-22T19:55:47.336Z,4.82
2017-10-22T19:58:15.164Z,5.62
2017-10-22T20:00:43.478Z,7.70
2017-10-22T20:03:11.235Z,6.53
2017-10-22T20:05:39.107Z,5.60
2017-10-22T20:08:06.882Z,9.70
2017-10-22T20:10:34.566Z,10.35
2017-10-22T20:13:02.264Z,8.63
2017-10-22T20:15:29.902Z,7.10
2017-10-22T20:17:57.663Z,4.37
2017-10-22T20:20:25.327Z,4.12
2017-10-22T20:22:52.983Z,2.37
2017-10-22T20:25:21.964Z,2.47
2017-10-22T20:27:49.579Z,1.70
2017-10-22T20:30:17.295Z,1.92
2017-10-22T20:32:45.726Z,2.30
2017-10-22T20:35:13.341Z,4.47
2017-10-22T20:37:41.007Z,4.95
2017-10-22T20:40:08.690Z,5.15
2017-10-22T20:42:36.352Z,6.87
2017-10-22T20:45:03.983Z,3.45
2017-10-22T20:47:31.605Z,2.10
2017-10-22T20:49:59.267Z,4.43
2017-10-22T20:52:26.888Z,2.03
2017-10-22T20:54:54.508Z,2.47
2017-10-22T20:57:22.148Z,3.00
2017-10-22T20:59:49.778Z,5.30
2017-10-22T21:02:18.195Z,5.10
2017-10-22T21:04:45.854Z,5.78
2017-10-22T21:07:13.477Z,7.53
2017-10-22T21:09:41.110Z,3.80
2017-10-22T21:12:08.737Z,6.57
2017-10-22T21:14:36.403Z,2.15
2017-10-22T21:17:04.018Z,5.45
2017-10-22T21:19:34.399Z,5.50
2017-10-22T21:22:02.799Z,2.40
2017-10-22T21:24:30.463Z,6.43
2017-10-22T21:26:58.132Z,2.97
2017-10-22T21:29:27.437Z,3.08
2017-10-22T21:31:55.690Z,2.62
2017-10-22T21:34:23.319Z,1.83
2017-10-22T21:36:52.087Z,2.55
2017-10-22T21:39:19.742Z,2.92
2017-10-22T21:41:47.471Z,2.97
2017-10-22T21:44:15.161Z,3.08
2017-10-22T21:46:42.813Z,1.95
2017-10-22T21:49:10.438Z,3.30
2017-10-22T21:51:38.110Z,4.47
2017-10-22T21:54:05.781Z,2.75
2017-10-22T21:56:33.497Z,3.62
2017-10-22T21:59:01.135Z,3.35
2017-10-22T22:01:28.777Z,3.10
2017-10-22T22:03:56.442Z,3.95
2017-10-22T22:06:24.059Z,3.78
2017-10-22T22:08:51.683Z,3.90
2017-10-22T22:11:19.339Z,3.78
2017-10-22T22:13:46.951Z,4.07
2017-10-22T22:16:14.696Z,3.78
2017-10-22T22:18:42.316Z,2.97
2017-10-22T22:21:09.947Z,2.67
2017-10-22T22:23:37.863Z,2.53
2017-10-22T22:26:05.490Z,3.40
2017-10-22T22:28:33.155Z,4.78
2017-10-22T22:31:00.782Z,3.45
2017-10-22T22:33:28.411Z,2.75
2017-10-22T22:35:56.866Z,3.45
2017-10-22T22:38:24.524Z,2.75
2017-10-22T22:40:52.934Z,2.70
2017-10-22T22:43:20.549Z,4.07
2017-10-22T22:45:48.934Z,2.80
2017-10-22T22:48:16.783Z,2.67
2017-10-22T22:50:44.562Z,4.05
2017-10-22T22:53:12.233Z,2.37
2017-10-22T22:55:39.854Z,3.37
2017-10-22T22:58:07.463Z,3.22
2017-10-22T23:00:35.195Z,3.35
2017-10-22T23:03:02.896Z,3.83
2017-10-22T23:05:30.838Z,3.35
2017-10-22T23:07:58.450Z,3.00
2017-10-22T23:10:26.172Z,3.20
2017-10-22T23:12:53.971Z,2.97
2017-10-22T23:15:21.611Z,3.67
2017-10-22T23:17:49.266Z,3.50
2017-10-22T23:20:16.902Z,3.60
2017-10-22T23:22:44.519Z,3.92
2017-10-22T23:25:12.915Z,4.20
2017-10-22T23:27:40.531Z,4.50
2017-10-22T23:30:09.187Z,5.82
2017-10-22T23:32:36.834Z,4.25
2017-10-22T23:35:04.464Z,5.07
2017-10-22T23:37:32.094Z,4.80
2017-10-22T23:39:59.707Z,4.47
2017-10-22T23:42:27.377Z,5.60
2017-10-22T23:44:54.994Z,5.70
2017-10-22T23:47:22.820Z,8.85
2017-10-22T23:49:50.464Z,10.13
2017-10-22T23:52:18.086Z,8.70
2017-10-22T23:54:45.753Z,9.07
2017-10-22T23:57:13.415Z,8.15
2017-10-22T23:59:41.791Z,8.45
